CheckWX is a tool to help pilots better visualize weather data.  It is not intended as a substitute for an official pre-flight weather briefing.

20:43:28 UTC

KEND METAR
Vance AFB Airport
Enid, Oklahoma, USA
Current

47 mins ago

KEND 261956Z AUTO 16019KT 10SM SCT055 34/22 A3004 RMK AO2 SLP158 T03370215 $
Observed
Jun-26 @ 19:56 UTC
Wind
  • 160° at 19 KTS
Visibility
10 SM
Flight Rules
VFR
Cloud Levels
  • Scattered at 5,500' AGL
Temperature
34°C / 93°F
Dewpoint
22°C / 72°F
Heat Index
38°C / 100°F
Humidity
49%
Altimeter
30.04" Hg
Pressure
1017.32 hPa
Previous

2 hours ago

KEND 261856Z AUTO 17013G19KT 10SM SCT047 SCT210 33/23 A3005 RMK AO2 SLP162 T03300230 $
Observed
Jun-26 @ 18:56 UTC
Wind
  • 170° at 13 KTS
  • Gusting to 19 KTS
Visibility
10 SM
Flight Rules
VFR
Cloud Levels
  • Scattered at 4,700' AGL
  • Scattered at 21,000' AGL
Temperature
33°C / 91°F
Dewpoint
23°C / 73°F
Heat Index
38°C / 100°F
Humidity
56%
Altimeter
30.05" Hg
Pressure
1017.62 hPa
Previous

3 hours ago

KEND 261756Z AUTO 16016G19KT 10SM SCT042 32/23 A3006 RMK AO2 SLP165 T03230229 10323 20218 58002 $
Observed
Jun-26 @ 17:56 UTC
Wind
  • 160° at 16 KTS
  • Gusting to 19 KTS
Visibility
10 SM
Flight Rules
VFR
Cloud Levels
  • Scattered at 4,200' AGL
Temperature
32°C / 90°F
Dewpoint
23°C / 73°F
Heat Index
37°C / 99°F
Humidity
59%
Altimeter
30.06" Hg
Pressure
1017.92 hPa